sensor_id;sensor_type;location;lat;lon;timestamp;temperature;humidity
16781;DHT22;8507;50.056;8.248;2023-04-24T00:01:39;12.60;99.90
16781;DHT22;8507;50.056;8.248;2023-04-24T00:04:05;12.60;99.90
16781;DHT22;8507;50.056;8.248;2023-04-24T00:06:32;12.60;99.90
16781;DHT22;8507;50.056;8.248;2023-04-24T00:09:00;12.60;99.90
16781;DHT22;8507;50.056;8.248;2023-04-24T00:11:26;12.60;99.90
16781;DHT22;8507;50.056;8.248;2023-04-24T00:13:52;12.60;99.90
16781;DHT22;8507;50.056;8.248;2023-04-24T00:16:17;12.50;99.90
16781;DHT22;8507;50.056;8.248;2023-04-24T00:18:43;12.40;99.90
16781;DHT22;8507;50.056;8.248;2023-04-24T00:21:10;12.40;99.90
16781;DHT22;8507;50.056;8.248;2023-04-24T00:23:36;12.40;99.90
16781;DHT22;8507;50.056;8.248;2023-04-24T00:26:01;12.40;99.90
16781;DHT22;8507;50.056;8.248;2023-04-24T00:28:27;12.50;99.90
16781;DHT22;8507;50.056;8.248;2023-04-24T00:30:53;12.60;99.90
16781;DHT22;8507;50.056;8.248;2023-04-24T00:33:19;12.60;99.90
16781;DHT22;8507;50.056;8.248;2023-04-24T00:35:45;12.70;99.90
16781;DHT22;8507;50.056;8.248;2023-04-24T00:38:10;12.70;99.90
16781;DHT22;8507;50.056;8.248;2023-04-24T00:40:36;12.60;99.90
16781;DHT22;8507;50.056;8.248;2023-04-24T00:43:01;12.70;99.90
16781;DHT22;8507;50.056;8.248;2023-04-24T00:45:27;12.70;99.90
16781;DHT22;8507;50.056;8.248;2023-04-24T00:47:53;12.70;99.90
16781;DHT22;8507;50.056;8.248;2023-04-24T00:50:18;12.60;99.90
16781;DHT22;8507;50.056;8.248;2023-04-24T00:52:44;12.60;99.90
16781;DHT22;8507;50.056;8.248;2023-04-24T00:55:10;12.50;99.90
16781;DHT22;8507;50.056;8.248;2023-04-24T00:57:37;12.40;99.90
16781;DHT22;8507;50.056;8.248;2023-04-24T01:00:04;12.40;99.90
16781;DHT22;8507;50.056;8.248;2023-04-24T01:02:31;12.50;99.90
16781;DHT22;8507;50.056;8.248;2023-04-24T01:05:00;12.50;99.90
16781;DHT22;8507;50.056;8.248;2023-04-24T01:07:26;12.40;99.90
16781;DHT22;8507;50.056;8.248;2023-04-24T01:09:52;12.40;99.90
16781;DHT22;8507;50.056;8.248;2023-04-24T01:12:19;12.40;99.90
16781;DHT22;8507;50.056;8.248;2023-04-24T01:14:45;12.40;99.90
16781;DHT22;8507;50.056;8.248;2023-04-24T01:17:11;12.30;99.90
16781;DHT22;8507;50.056;8.248;2023-04-24T01:19:37;12.40;99.90
16781;DHT22;8507;50.056;8.248;2023-04-24T01:22:08;12.40;99.90
16781;DHT22;8507;50.056;8.248;2023-04-24T01:24:35;12.40;99.90
16781;DHT22;8507;50.056;8.248;2023-04-24T01:27:00;12.40;99.90
16781;DHT22;8507;50.056;8.248;2023-04-24T01:29:26;12.40;99.90
16781;DHT22;8507;50.056;8.248;2023-04-24T01:31:52;12.50;99.90
16781;DHT22;8507;50.056;8.248;2023-04-24T01:34:18;12.40;99.90
16781;DHT22;8507;50.056;8.248;2023-04-24T01:36:45;12.40;99.90
16781;DHT22;8507;50.056;8.248;2023-04-24T01:39:12;12.50;99.90
16781;DHT22;8507;50.056;8.248;2023-04-24T01:41:37;12.50;99.90
16781;DHT22;8507;50.056;8.248;2023-04-24T01:44:03;12.50;99.90
16781;DHT22;8507;50.056;8.248;2023-04-24T01:46:29;12.40;99.90
16781;DHT22;8507;50.056;8.248;2023-04-24T01:48:58;12.40;99.90
16781;DHT22;8507;50.056;8.248;2023-04-24T01:51:24;12.40;99.90
16781;DHT22;8507;50.056;8.248;2023-04-24T01:53:50;12.50;99.90
16781;DHT22;8507;50.056;8.248;2023-04-24T01:56:16;12.40;99.90
16781;DHT22;8507;50.056;8.248;2023-04-24T01:58:41;12.50;99.90
16781;DHT22;8507;50.056;8.248;2023-04-24T02:01:08;12.50;99.90
16781;DHT22;8507;50.056;8.248;2023-04-24T02:03:33;12.40;99.90
16781;DHT22;8507;50.056;8.248;2023-04-24T02:05:59;12.40;99.90
16781;DHT22;8507;50.056;8.248;2023-04-24T02:08:25;12.40;99.90
16781;DHT22;8507;50.056;8.248;2023-04-24T02:10:50;12.30;99.90
16781;DHT22;8507;50.056;8.248;2023-04-24T02:13:16;12.30;99.90
16781;DHT22;8507;50.056;8.248;2023-04-24T02:15:41;12.30;99.90
16781;DHT22;8507;50.056;8.248;2023-04-24T02:18:07;12.40;99.90
16781;DHT22;8507;50.056;8.248;2023-04-24T02:20:32;12.40;99.90
16781;DHT22;8507;50.056;8.248;2023-04-24T02:23:00;12.40;99.90
16781;DHT22;8507;50.056;8.248;2023-04-24T02:25:26;12.40;99.90
16781;DHT22;8507;50.056;8.248;2023-04-24T02:27:51;12.40;99.90
16781;DHT22;8507;50.056;8.248;2023-04-24T02:30:17;12.50;99.90
16781;DHT22;8507;50.056;8.248;2023-04-24T02:32:42;12.50;99.90
16781;DHT22;8507;50.056;8.248;2023-04-24T02:35:08;12.50;99.90
16781;DHT22;8507;50.056;8.248;2023-04-24T02:37:34;12.40;99.90
16781;DHT22;8507;50.056;8.248;2023-04-24T02:39:59;12.40;99.90
16781;DHT22;8507;50.056;8.248;2023-04-24T02:42:25;12.40;99.90
16781;DHT22;8507;50.056;8.248;2023-04-24T02:44:51;12.50;99.90
16781;DHT22;8507;50.056;8.248;2023-04-24T02:47:16;12.50;99.90
16781;DHT22;8507;50.056;8.248;2023-04-24T02:49:42;12.60;99.90
16781;DHT22;8507;50.056;8.248;2023-04-24T02:52:07;12.50;99.90
16781;DHT22;8507;50.056;8.248;2023-04-24T02:54:33;12.50;99.90
16781;DHT22;8507;50.056;8.248;2023-04-24T02:56:58;12.50;99.90
16781;DHT22;8507;50.056;8.248;2023-04-24T02:59:24;12.50;99.90
16781;DHT22;8507;50.056;8.248;2023-04-24T03:01:49;12.50;99.90
16781;DHT22;8507;50.056;8.248;2023-04-24T03:04:15;12.40;99.90
16781;DHT22;8507;50.056;8.248;2023-04-24T03:06:40;12.50;99.90
16781;DHT22;8507;50.056;8.248;2023-04-24T03:09:06;12.40;99.90
16781;DHT22;8507;50.056;8.248;2023-04-24T03:11:31;12.50;99.90
16781;DHT22;8507;50.056;8.248;2023-04-24T03:13:57;12.50;99.90
16781;DHT22;8507;50.056;8.248;2023-04-24T03:16:23;12.60;99.90
16781;DHT22;8507;50.056;8.248;2023-04-24T03:18:48;12.50;99.90
16781;DHT22;8507;50.056;8.248;2023-04-24T03:21:14;12.50;99.90
16781;DHT22;8507;50.056;8.248;2023-04-24T03:23:39;12.40;99.90
16781;DHT22;8507;50.056;8.248;2023-04-24T03:26:05;12.40;99.90
16781;DHT22;8507;50.056;8.248;2023-04-24T03:28:30;12.30;99.90
16781;DHT22;8507;50.056;8.248;2023-04-24T03:30:56;12.30;99.90
16781;DHT22;8507;50.056;8.248;2023-04-24T03:33:21;12.30;99.90
16781;DHT22;8507;50.056;8.248;2023-04-24T03:35:47;12.20;99.90
16781;DHT22;8507;50.056;8.248;2023-04-24T03:38:12;12.10;99.90
16781;DHT22;8507;50.056;8.248;2023-04-24T03:40:38;12.00;99.90
16781;DHT22;8507;50.056;8.248;2023-04-24T03:43:03;11.90;99.90
16781;DHT22;8507;50.056;8.248;2023-04-24T03:45:29;11.70;99.90
16781;DHT22;8507;50.056;8.248;2023-04-24T03:47:54;11.50;99.90
16781;DHT22;8507;50.056;8.248;2023-04-24T03:50:20;11.40;99.90
16781;DHT22;8507;50.056;8.248;2023-04-24T03:52:45;11.20;99.90
16781;DHT22;8507;50.056;8.248;2023-04-24T03:55:11;11.10;99.90
16781;DHT22;8507;50.056;8.248;2023-04-24T03:57:39;11.00;99.90
16781;DHT22;8507;50.056;8.248;2023-04-24T04:00:05;10.90;99.90
16781;DHT22;8507;50.056;8.248;2023-04-24T04:02:31;10.80;99.90
16781;DHT22;8507;50.056;8.248;2023-04-24T04:04:57;10.70;99.90
16781;DHT22;8507;50.056;8.248;2023-04-24T04:07:22;10.60;99.90
16781;DHT22;8507;50.056;8.248;2023-04-24T04:09:48;10.50;99.90
16781;DHT22;8507;50.056;8.248;2023-04-24T04:12:13;10.40;99.90
16781;DHT22;8507;50.056;8.248;2023-04-24T04:14:39;10.40;99.90
16781;DHT22;8507;50.056;8.248;2023-04-24T04:17:04;10.30;99.90
16781;DHT22;8507;50.056;8.248;2023-04-24T04:19:30;10.30;99.90
16781;DHT22;8507;50.056;8.248;2023-04-24T04:21:56;10.20;99.90
16781;DHT22;8507;50.056;8.248;2023-04-24T04:24:21;10.20;99.90
16781;DHT22;8507;50.056;8.248;2023-04-24T04:26:48;10.10;99.90
16781;DHT22;8507;50.056;8.248;2023-04-24T04:29:16;10.10;99.90
16781;DHT22;8507;50.056;8.248;2023-04-24T04:31:42;10.10;99.90
16781;DHT22;8507;50.056;8.248;2023-04-24T04:34:08;10.10;99.90
16781;DHT22;8507;50.056;8.248;2023-04-24T04:36:34;10.10;99.90
16781;DHT22;8507;50.056;8.248;2023-04-24T04:39:02;10.10;99.90
16781;DHT22;8507;50.056;8.248;2023-04-24T04:41:28;10.10;99.90
16781;DHT22;8507;50.056;8.248;2023-04-24T04:43:54;10.10;99.90
16781;DHT22;8507;50.056;8.248;2023-04-24T04:46:20;10.10;99.90
16781;DHT22;8507;50.056;8.248;2023-04-24T04:48:45;10.10;99.90
16781;DHT22;8507;50.056;8.248;2023-04-24T04:51:11;10.10;99.90
16781;DHT22;8507;50.056;8.248;2023-04-24T04:53:36;10.10;99.90
16781;DHT22;8507;50.056;8.248;2023-04-24T04:56:02;10.10;99.90
16781;DHT22;8507;50.056;8.248;2023-04-24T04:58:28;10.20;99.90
16781;DHT22;8507;50.056;8.248;2023-04-24T05:00:53;10.20;99.90
16781;DHT22;8507;50.056;8.248;2023-04-24T05:03:19;10.10;99.90
16781;DHT22;8507;50.056;8.248;2023-04-24T05:05:46;10.10;99.90
16781;DHT22;8507;50.056;8.248;2023-04-24T05:08:11;10.10;99.90
16781;DHT22;8507;50.056;8.248;2023-04-24T05:10:37;10.20;99.90
16781;DHT22;8507;50.056;8.248;2023-04-24T05:13:03;10.20;99.90
16781;DHT22;8507;50.056;8.248;2023-04-24T05:15:29;10.10;99.90
16781;DHT22;8507;50.056;8.248;2023-04-24T05:17:55;10.20;99.90
16781;DHT22;8507;50.056;8.248;2023-04-24T05:20:21;10.10;99.90
16781;DHT22;8507;50.056;8.248;2023-04-24T05:22:46;10.20;99.90
16781;DHT22;8507;50.056;8.248;2023-04-24T05:25:12;10.30;99.90
16781;DHT22;8507;50.056;8.248;2023-04-24T05:27:38;10.40;99.90
16781;DHT22;8507;50.056;8.248;2023-04-24T05:30:04;10.50;99.90
16781;DHT22;8507;50.056;8.248;2023-04-24T05:32:30;10.50;99.90
16781;DHT22;8507;50.056;8.248;2023-04-24T05:34:55;10.50;99.90
16781;DHT22;8507;50.056;8.248;2023-04-24T05:37:21;10.40;99.90
16781;DHT22;8507;50.056;8.248;2023-04-24T05:39:47;10.40;99.90
16781;DHT22;8507;50.056;8.248;2023-04-24T05:42:12;10.30;99.90
16781;DHT22;8507;50.056;8.248;2023-04-24T05:44:38;10.30;99.90
16781;DHT22;8507;50.056;8.248;2023-04-24T05:47:03;10.30;99.90
16781;DHT22;8507;50.056;8.248;2023-04-24T05:49:29;10.40;99.90
16781;DHT22;8507;50.056;8.248;2023-04-24T05:51:54;10.50;99.90
16781;DHT22;8507;50.056;8.248;2023-04-24T05:54:20;10.60;99.90
16781;DHT22;8507;50.056;8.248;2023-04-24T05:56:46;10.70;99.90
16781;DHT22;8507;50.056;8.248;2023-04-24T05:59:11;10.90;99.90
16781;DHT22;8507;50.056;8.248;2023-04-24T06:01:37;10.90;99.90
16781;DHT22;8507;50.056;8.248;2023-04-24T06:04:03;11.10;99.90
16781;DHT22;8507;50.056;8.248;2023-04-24T06:06:29;11.30;99.90
16781;DHT22;8507;50.056;8.248;2023-04-24T06:08:54;11.40;99.90
16781;DHT22;8507;50.056;8.248;2023-04-24T06:11:20;11.40;99.90
16781;DHT22;8507;50.056;8.248;2023-04-24T06:13:46;11.50;99.90
16781;DHT22;8507;50.056;8.248;2023-04-24T06:16:12;11.60;99.90
16781;DHT22;8507;50.056;8.248;2023-04-24T06:18:37;11.70;99.90
16781;DHT22;8507;50.056;8.248;2023-04-24T06:21:03;11.90;99.90
16781;DHT22;8507;50.056;8.248;2023-04-24T06:23:29;12.10;99.90
16781;DHT22;8507;50.056;8.248;2023-04-24T06:25:57;12.10;99.90
16781;DHT22;8507;50.056;8.248;2023-04-24T06:28:23;12.20;99.90
16781;DHT22;8507;50.056;8.248;2023-04-24T06:30:48;12.50;99.90
16781;DHT22;8507;50.056;8.248;2023-04-24T06:33:14;12.70;99.90
16781;DHT22;8507;50.056;8.248;2023-04-24T06:35:40;12.60;99.90
16781;DHT22;8507;50.056;8.248;2023-04-24T06:38:05;12.70;99.90
16781;DHT22;8507;50.056;8.248;2023-04-24T06:40:32;12.70;99.90
16781;DHT22;8507;50.056;8.248;2023-04-24T06:42:58;12.50;99.90
16781;DHT22;8507;50.056;8.248;2023-04-24T06:45:25;12.70;99.90
16781;DHT22;8507;50.056;8.248;2023-04-24T06:47:51;12.90;99.90
16781;DHT22;8507;50.056;8.248;2023-04-24T06:50:17;13.00;99.90
16781;DHT22;8507;50.056;8.248;2023-04-24T06:52:42;12.90;99.90
16781;DHT22;8507;50.056;8.248;2023-04-24T06:55:09;12.90;99.90
16781;DHT22;8507;50.056;8.248;2023-04-24T06:57:36;12.80;99.90
16781;DHT22;8507;50.056;8.248;2023-04-24T07:00:03;12.80;99.90
16781;DHT22;8507;50.056;8.248;2023-04-24T07:02:30;12.60;99.90
16781;DHT22;8507;50.056;8.248;2023-04-24T07:04:55;12.50;99.90
16781;DHT22;8507;50.056;8.248;2023-04-24T07:07:22;12.50;99.90
16781;DHT22;8507;50.056;8.248;2023-04-24T07:09:49;12.60;99.90
16781;DHT22;8507;50.056;8.248;2023-04-24T07:12:16;12.70;99.90
16781;DHT22;8507;50.056;8.248;2023-04-24T07:14:42;12.90;99.90
16781;DHT22;8507;50.056;8.248;2023-04-24T07:17:08;13.10;99.90
16781;DHT22;8507;50.056;8.248;2023-04-24T07:19:34;13.30;99.90
16781;DHT22;8507;50.056;8.248;2023-04-24T07:22:00;13.40;99.90
16781;DHT22;8507;50.056;8.248;2023-04-24T07:24:26;13.20;99.90
16781;DHT22;8507;50.056;8.248;2023-04-24T07:26:52;13.10;99.90
16781;DHT22;8507;50.056;8.248;2023-04-24T07:29:18;13.00;99.90
16781;DHT22;8507;50.056;8.248;2023-04-24T07:31:45;13.20;99.90
16781;DHT22;8507;50.056;8.248;2023-04-24T07:34:10;13.30;99.90
16781;DHT22;8507;50.056;8.248;2023-04-24T07:36:36;13.30;99.90
16781;DHT22;8507;50.056;8.248;2023-04-24T07:39:07;13.30;99.90
16781;DHT22;8507;50.056;8.248;2023-04-24T07:41:34;13.40;99.90
16781;DHT22;8507;50.056;8.248;2023-04-24T07:44:01;13.80;99.90
16781;DHT22;8507;50.056;8.248;2023-04-24T07:46:26;13.70;99.90
16781;DHT22;8507;50.056;8.248;2023-04-24T07:48:55;13.70;99.90
16781;DHT22;8507;50.056;8.248;2023-04-24T07:51:20;13.50;99.90
16781;DHT22;8507;50.056;8.248;2023-04-24T07:53:46;13.20;99.90
16781;DHT22;8507;50.056;8.248;2023-04-24T07:56:12;13.30;99.90
16781;DHT22;8507;50.056;8.248;2023-04-24T07:58:37;13.40;99.90
16781;DHT22;8507;50.056;8.248;2023-04-24T08:01:03;13.20;99.90
16781;DHT22;8507;50.056;8.248;2023-04-24T08:03:28;13.30;99.90
16781;DHT22;8507;50.056;8.248;2023-04-24T08:05:54;13.50;99.90
16781;DHT22;8507;50.056;8.248;2023-04-24T08:08:22;13.70;99.90
16781;DHT22;8507;50.056;8.248;2023-04-24T08:10:48;13.60;99.90
16781;DHT22;8507;50.056;8.248;2023-04-24T08:13:13;13.70;99.90
16781;DHT22;8507;50.056;8.248;2023-04-24T08:15:39;13.60;99.90
16781;DHT22;8507;50.056;8.248;2023-04-24T08:18:05;13.30;99.90
16781;DHT22;8507;50.056;8.248;2023-04-24T08:20:30;13.00;99.90
16781;DHT22;8507;50.056;8.248;2023-04-24T08:22:56;13.10;99.90
16781;DHT22;8507;50.056;8.248;2023-04-24T08:25:23;13.00;99.90
16781;DHT22;8507;50.056;8.248;2023-04-24T08:27:50;12.80;99.90
16781;DHT22;8507;50.056;8.248;2023-04-24T08:30:16;12.80;99.90
16781;DHT22;8507;50.056;8.248;2023-04-24T08:32:41;12.70;99.90
16781;DHT22;8507;50.056;8.248;2023-04-24T08:35:07;12.60;99.90
16781;DHT22;8507;50.056;8.248;2023-04-24T08:37:36;12.60;99.90
16781;DHT22;8507;50.056;8.248;2023-04-24T08:40:13;12.60;99.90
16781;DHT22;8507;50.056;8.248;2023-04-24T08:42:42;12.60;99.90
16781;DHT22;8507;50.056;8.248;2023-04-24T08:45:09;12.50;99.90
16781;DHT22;8507;50.056;8.248;2023-04-24T08:47:35;12.50;99.90
16781;DHT22;8507;50.056;8.248;2023-04-24T08:50:02;12.40;99.90
16781;DHT22;8507;50.056;8.248;2023-04-24T08:52:28;12.40;99.90
16781;DHT22;8507;50.056;8.248;2023-04-24T08:54:54;12.40;99.90
16781;DHT22;8507;50.056;8.248;2023-04-24T08:57:20;12.50;99.90
16781;DHT22;8507;50.056;8.248;2023-04-24T08:59:47;12.50;99.90
16781;DHT22;8507;50.056;8.248;2023-04-24T09:02:13;12.50;99.90
16781;DHT22;8507;50.056;8.248;2023-04-24T09:04:40;12.50;99.90
16781;DHT22;8507;50.056;8.248;2023-04-24T09:07:06;12.50;99.90
16781;DHT22;8507;50.056;8.248;2023-04-24T09:09:34;12.30;99.90
16781;DHT22;8507;50.056;8.248;2023-04-24T09:12:01;12.20;99.90
16781;DHT22;8507;50.056;8.248;2023-04-24T09:14:31;12.30;99.90
16781;DHT22;8507;50.056;8.248;2023-04-24T09:16:57;12.30;99.90
16781;DHT22;8507;50.056;8.248;2023-04-24T09:19:23;12.30;99.90
16781;DHT22;8507;50.056;8.248;2023-04-24T09:21:48;12.40;99.90
16781;DHT22;8507;50.056;8.248;2023-04-24T09:24:18;12.60;99.90
16781;DHT22;8507;50.056;8.248;2023-04-24T09:26:48;12.70;99.90
16781;DHT22;8507;50.056;8.248;2023-04-24T09:29:18;12.80;99.90
16781;DHT22;8507;50.056;8.248;2023-04-24T09:31:45;12.90;99.90
16781;DHT22;8507;50.056;8.248;2023-04-24T09:34:11;13.10;99.90
16781;DHT22;8507;50.056;8.248;2023-04-24T09:36:40;13.10;99.90
16781;DHT22;8507;50.056;8.248;2023-04-24T09:39:10;13.10;99.90
16781;DHT22;8507;50.056;8.248;2023-04-24T09:41:51;13.00;99.90
16781;DHT22;8507;50.056;8.248;2023-04-24T09:44:18;12.80;99.90
16781;DHT22;8507;50.056;8.248;2023-04-24T09:49:22;12.70;99.90
16781;DHT22;8507;50.056;8.248;2023-04-24T09:51:48;12.50;99.90
16781;DHT22;8507;50.056;8.248;2023-04-24T09:54:18;12.50;99.90
16781;DHT22;8507;50.056;8.248;2023-04-24T09:56:47;12.40;99.90
16781;DHT22;8507;50.056;8.248;2023-04-24T09:59:14;12.50;99.90
16781;DHT22;8507;50.056;8.248;2023-04-24T10:01:40;12.40;99.90
16781;DHT22;8507;50.056;8.248;2023-04-24T10:04:21;12.30;99.90
16781;DHT22;8507;50.056;8.248;2023-04-24T10:06:49;12.30;99.90
16781;DHT22;8507;50.056;8.248;2023-04-24T10:09:18;12.30;99.90
16781;DHT22;8507;50.056;8.248;2023-04-24T10:11:46;12.30;99.90
16781;DHT22;8507;50.056;8.248;2023-04-24T10:14:13;12.40;99.90
16781;DHT22;8507;50.056;8.248;2023-04-24T10:16:40;12.20;99.90
16781;DHT22;8507;50.056;8.248;2023-04-24T10:19:07;12.30;99.90
16781;DHT22;8507;50.056;8.248;2023-04-24T10:21:33;12.20;99.90
16781;DHT22;8507;50.056;8.248;2023-04-24T10:23:59;12.20;99.90
16781;DHT22;8507;50.056;8.248;2023-04-24T10:26:28;12.20;99.90
16781;DHT22;8507;50.056;8.248;2023-04-24T10:28:54;12.40;99.90
16781;DHT22;8507;50.056;8.248;2023-04-24T10:31:22;12.50;99.90
16781;DHT22;8507;50.056;8.248;2023-04-24T10:33:50;12.80;99.90
16781;DHT22;8507;50.056;8.248;2023-04-24T10:36:17;13.00;99.90
16781;DHT22;8507;50.056;8.248;2023-04-24T10:38:45;13.30;99.90
16781;DHT22;8507;50.056;8.248;2023-04-24T10:41:13;13.50;99.90
16781;DHT22;8507;50.056;8.248;2023-04-24T10:43:45;13.80;99.90
16781;DHT22;8507;50.056;8.248;2023-04-24T10:46:19;13.70;99.90
16781;DHT22;8507;50.056;8.248;2023-04-24T10:48:53;14.10;99.90
16781;DHT22;8507;50.056;8.248;2023-04-24T10:51:22;14.70;99.90
16781;DHT22;8507;50.056;8.248;2023-04-24T10:53:52;14.60;99.90
16781;DHT22;8507;50.056;8.248;2023-04-24T10:56:18;14.80;99.90
16781;DHT22;8507;50.056;8.248;2023-04-24T10:58:51;15.00;99.90
16781;DHT22;8507;50.056;8.248;2023-04-24T11:01:25;14.80;99.90
16781;DHT22;8507;50.056;8.248;2023-04-24T11:03:58;14.30;99.90
16781;DHT22;8507;50.056;8.248;2023-04-24T11:06:36;14.30;99.90
16781;DHT22;8507;50.056;8.248;2023-04-24T11:09:04;14.30;99.90
16781;DHT22;8507;50.056;8.248;2023-04-24T11:11:31;14.50;99.90
16781;DHT22;8507;50.056;8.248;2023-04-24T11:16:28;14.50;99.90
16781;DHT22;8507;50.056;8.248;2023-04-24T11:29:59;17.10;99.90
16781;DHT22;8507;50.056;8.248;2023-04-24T11:32:41;16.70;99.90
16781;DHT22;8507;50.056;8.248;2023-04-24T11:35:20;16.20;99.90
16781;DHT22;8507;50.056;8.248;2023-04-24T11:37:51;15.30;99.90
16781;DHT22;8507;50.056;8.248;2023-04-24T11:40:19;14.90;99.90
16781;DHT22;8507;50.056;8.248;2023-04-24T11:42:49;14.60;99.90
16781;DHT22;8507;50.056;8.248;2023-04-24T11:45:22;14.20;99.90
16781;DHT22;8507;50.056;8.248;2023-04-24T11:47:48;13.60;99.90
16781;DHT22;8507;50.056;8.248;2023-04-24T11:50:19;13.10;99.90
16781;DHT22;8507;50.056;8.248;2023-04-24T11:52:46;13.00;99.90
16781;DHT22;8507;50.056;8.248;2023-04-24T11:57:48;12.60;99.90
16781;DHT22;8507;50.056;8.248;2023-04-24T12:00:22;12.30;99.90
16781;DHT22;8507;50.056;8.248;2023-04-24T12:02:49;12.20;99.90
16781;DHT22;8507;50.056;8.248;2023-04-24T12:05:27;12.00;99.90
16781;DHT22;8507;50.056;8.248;2023-04-24T12:07:53;12.20;99.90
16781;DHT22;8507;50.056;8.248;2023-04-24T12:10:24;12.70;99.90
16781;DHT22;8507;50.056;8.248;2023-04-24T12:12:50;12.90;99.90
16781;DHT22;8507;50.056;8.248;2023-04-24T12:15:17;13.30;99.90
16781;DHT22;8507;50.056;8.248;2023-04-24T12:17:43;13.30;99.90
16781;DHT22;8507;50.056;8.248;2023-04-24T12:20:10;13.40;99.90
16781;DHT22;8507;50.056;8.248;2023-04-24T12:22:45;13.50;99.90
16781;DHT22;8507;50.056;8.248;2023-04-24T12:25:12;13.80;99.90
16781;DHT22;8507;50.056;8.248;2023-04-24T12:27:37;14.10;99.90
16781;DHT22;8507;50.056;8.248;2023-04-24T12:30:05;14.10;99.90
16781;DHT22;8507;50.056;8.248;2023-04-24T12:32:34;14.10;99.90
16781;DHT22;8507;50.056;8.248;2023-04-24T12:35:00;14.10;99.90
16781;DHT22;8507;50.056;8.248;2023-04-24T12:37:31;14.00;99.90
16781;DHT22;8507;50.056;8.248;2023-04-24T12:40:07;14.10;99.90
16781;DHT22;8507;50.056;8.248;2023-04-24T12:42:34;14.10;99.90
16781;DHT22;8507;50.056;8.248;2023-04-24T12:45:05;14.10;99.90
16781;DHT22;8507;50.056;8.248;2023-04-24T12:47:32;14.20;99.90
16781;DHT22;8507;50.056;8.248;2023-04-24T12:49:58;14.90;99.90
16781;DHT22;8507;50.056;8.248;2023-04-24T12:52:25;15.30;99.90
16781;DHT22;8507;50.056;8.248;2023-04-24T12:54:53;15.10;99.90
16781;DHT22;8507;50.056;8.248;2023-04-24T12:57:22;15.00;99.90
16781;DHT22;8507;50.056;8.248;2023-04-24T12:59:48;14.90;99.90
16781;DHT22;8507;50.056;8.248;2023-04-24T13:02:14;14.50;99.90
16781;DHT22;8507;50.056;8.248;2023-04-24T13:04:44;14.30;99.90
16781;DHT22;8507;50.056;8.248;2023-04-24T13:07:10;14.10;99.90
16781;DHT22;8507;50.056;8.248;2023-04-24T13:09:35;14.20;99.90
16781;DHT22;8507;50.056;8.248;2023-04-24T13:12:01;14.20;99.90
16781;DHT22;8507;50.056;8.248;2023-04-24T13:14:27;14.30;99.90
16781;DHT22;8507;50.056;8.248;2023-04-24T13:16:53;14.50;99.90
16781;DHT22;8507;50.056;8.248;2023-04-24T13:19:18;14.60;99.90
16781;DHT22;8507;50.056;8.248;2023-04-24T13:21:44;14.50;99.90
16781;DHT22;8507;50.056;8.248;2023-04-24T13:24:10;14.40;99.90
16781;DHT22;8507;50.056;8.248;2023-04-24T13:26:35;14.20;99.90
16781;DHT22;8507;50.056;8.248;2023-04-24T13:29:01;14.70;99.90
16781;DHT22;8507;50.056;8.248;2023-04-24T13:31:27;15.00;99.90
16781;DHT22;8507;50.056;8.248;2023-04-24T13:33:54;15.00;99.90
16781;DHT22;8507;50.056;8.248;2023-04-24T13:36:19;15.20;99.90
16781;DHT22;8507;50.056;8.248;2023-04-24T13:38:46;15.50;99.90
16781;DHT22;8507;50.056;8.248;2023-04-24T13:41:11;15.30;99.90
16781;DHT22;8507;50.056;8.248;2023-04-24T13:43:37;15.10;99.90
16781;DHT22;8507;50.056;8.248;2023-04-24T13:46:03;15.00;99.90
16781;DHT22;8507;50.056;8.248;2023-04-24T13:48:29;15.00;99.90
16781;DHT22;8507;50.056;8.248;2023-04-24T13:50:55;14.70;99.90
16781;DHT22;8507;50.056;8.248;2023-04-24T13:53:21;14.80;99.90
16781;DHT22;8507;50.056;8.248;2023-04-24T13:55:47;15.00;99.90
16781;DHT22;8507;50.056;8.248;2023-04-24T13:58:12;15.30;99.90
16781;DHT22;8507;50.056;8.248;2023-04-24T14:00:38;15.60;99.90
16781;DHT22;8507;50.056;8.248;2023-04-24T14:03:04;15.30;99.90
16781;DHT22;8507;50.056;8.248;2023-04-24T14:05:30;15.20;99.90
16781;DHT22;8507;50.056;8.248;2023-04-24T14:07:55;14.90;99.90
16781;DHT22;8507;50.056;8.248;2023-04-24T14:10:21;14.60;99.90
16781;DHT22;8507;50.056;8.248;2023-04-24T14:12:46;14.70;99.90
16781;DHT22;8507;50.056;8.248;2023-04-24T14:15:12;14.80;99.90
16781;DHT22;8507;50.056;8.248;2023-04-24T14:17:40;14.80;99.90
16781;DHT22;8507;50.056;8.248;2023-04-24T14:20:07;14.90;99.90
16781;DHT22;8507;50.056;8.248;2023-04-24T14:22:34;14.80;99.90
16781;DHT22;8507;50.056;8.248;2023-04-24T14:24:59;14.70;99.90
16781;DHT22;8507;50.056;8.248;2023-04-24T14:27:25;14.70;99.90
16781;DHT22;8507;50.056;8.248;2023-04-24T14:29:52;14.70;99.90
16781;DHT22;8507;50.056;8.248;2023-04-24T14:32:18;14.80;99.90
16781;DHT22;8507;50.056;8.248;2023-04-24T14:34:43;14.90;99.90
16781;DHT22;8507;50.056;8.248;2023-04-24T14:37:09;14.80;99.90
16781;DHT22;8507;50.056;8.248;2023-04-24T14:39:34;14.90;99.90
16781;DHT22;8507;50.056;8.248;2023-04-24T14:42:00;15.00;99.90
16781;DHT22;8507;50.056;8.248;2023-04-24T14:44:26;15.10;99.90
16781;DHT22;8507;50.056;8.248;2023-04-24T14:46:52;15.20;99.90
16781;DHT22;8507;50.056;8.248;2023-04-24T14:49:18;15.20;99.90
16781;DHT22;8507;50.056;8.248;2023-04-24T14:51:43;15.20;99.90
16781;DHT22;8507;50.056;8.248;2023-04-24T14:54:09;15.30;99.90
16781;DHT22;8507;50.056;8.248;2023-04-24T14:56:35;15.20;99.90
16781;DHT22;8507;50.056;8.248;2023-04-24T14:59:00;15.00;99.90
16781;DHT22;8507;50.056;8.248;2023-04-24T15:01:26;15.00;99.90
16781;DHT22;8507;50.056;8.248;2023-04-24T15:03:52;15.00;99.90
16781;DHT22;8507;50.056;8.248;2023-04-24T15:06:17;14.90;99.90
16781;DHT22;8507;50.056;8.248;2023-04-24T15:08:43;14.70;99.90
16781;DHT22;8507;50.056;8.248;2023-04-24T15:11:10;14.60;99.90
16781;DHT22;8507;50.056;8.248;2023-04-24T15:13:36;14.60;99.90
16781;DHT22;8507;50.056;8.248;2023-04-24T15:16:01;14.50;99.90
16781;DHT22;8507;50.056;8.248;2023-04-24T15:18:27;14.40;99.90
16781;DHT22;8507;50.056;8.248;2023-04-24T15:20:54;14.30;99.90
16781;DHT22;8507;50.056;8.248;2023-04-24T15:23:20;14.30;99.90
16781;DHT22;8507;50.056;8.248;2023-04-24T15:25:46;14.40;99.90
16781;DHT22;8507;50.056;8.248;2023-04-24T15:28:11;14.40;99.90
16781;DHT22;8507;50.056;8.248;2023-04-24T15:30:37;14.40;99.90
16781;DHT22;8507;50.056;8.248;2023-04-24T15:33:03;14.30;99.90
16781;DHT22;8507;50.056;8.248;2023-04-24T15:35:29;14.50;99.90
16781;DHT22;8507;50.056;8.248;2023-04-24T15:37:54;14.60;99.90
16781;DHT22;8507;50.056;8.248;2023-04-24T15:40:20;14.60;99.90
16781;DHT22;8507;50.056;8.248;2023-04-24T15:42:46;14.40;99.90
16781;DHT22;8507;50.056;8.248;2023-04-24T15:45:11;14.20;99.90
16781;DHT22;8507;50.056;8.248;2023-04-24T15:47:38;14.20;99.90
16781;DHT22;8507;50.056;8.248;2023-04-24T15:50:04;14.20;99.90
16781;DHT22;8507;50.056;8.248;2023-04-24T15:52:30;14.20;99.90
16781;DHT22;8507;50.056;8.248;2023-04-24T15:54:56;14.20;99.90
16781;DHT22;8507;50.056;8.248;2023-04-24T15:57:22;14.10;99.90
16781;DHT22;8507;50.056;8.248;2023-04-24T15:59:47;14.10;99.90